createdAt,value
2019-02-16T00:01:48.729Z,25.00
2019-02-16T00:04:16.858Z,19.10
2019-02-16T00:06:45.037Z,20.43
2019-02-16T00:09:13.508Z,18.92
2019-02-16T00:11:41.690Z,17.87
2019-02-16T00:14:10.243Z,23.60
2019-02-16T00:16:38.447Z,26.68
2019-02-16T00:19:06.629Z,18.25
2019-02-16T00:21:36.842Z,20.10
2019-02-16T00:24:05.302Z,18.97
2019-02-16T00:26:33.740Z,19.98
2019-02-16T00:29:02.176Z,22.50
2019-02-16T00:31:30.362Z,24.55
2019-02-16T00:33:58.533Z,23.10
2019-02-16T00:36:27.001Z,19.12
2019-02-16T00:38:55.178Z,18.57
2019-02-16T00:41:23.346Z,18.90
2019-02-16T00:44:10.897Z,19.10
2019-02-16T00:46:41.391Z,19.30
2019-02-16T00:49:09.576Z,15.93
2019-02-16T00:51:57.121Z,17.07
2019-02-16T00:54:26.390Z,17.77
2019-02-16T00:56:56.004Z,26.73
2019-02-16T00:59:25.170Z,20.68
2019-02-16T01:01:53.712Z,15.83
2019-02-16T01:04:21.860Z,15.70
2019-02-16T01:06:50.039Z,18.27
2019-02-16T01:09:18.214Z,15.05
2019-02-16T01:11:46.397Z,14.58
2019-02-16T01:14:14.555Z,17.60
2019-02-16T01:16:42.744Z,21.12
2019-02-16T01:19:11.652Z,16.20
2019-02-16T01:21:39.798Z,14.40
2019-02-16T01:24:07.972Z,16.17
2019-02-16T01:26:36.136Z,17.00
2019-02-16T01:29:04.633Z,15.03
2019-02-16T01:31:32.795Z,17.65
2019-02-16T01:34:01.035Z,15.08
2019-02-16T01:36:29.535Z,17.17
2019-02-16T01:38:58.016Z,18.12
2019-02-16T01:41:27.111Z,16.77
2019-02-16T01:43:57.500Z,16.37
2019-02-16T01:46:25.641Z,21.80
2019-02-16T01:48:53.812Z,20.88
2019-02-16T01:51:31.428Z,21.15
2019-02-16T01:53:50.467Z,28.32
2019-02-16T01:56:18.631Z,18.23
2019-02-16T01:58:47.338Z,18.27
2019-02-16T02:01:15.492Z,19.48
2019-02-16T02:03:44.830Z,25.75
2019-02-16T02:06:12.961Z,21.05
2019-02-16T02:08:41.155Z,21.20
2019-02-16T02:11:09.309Z,31.02
2019-02-16T02:13:37.886Z,28.25
2019-02-16T02:16:06.398Z,28.95
2019-02-16T02:18:35.206Z,22.05
2019-02-16T02:21:03.442Z,20.55
2019-02-16T02:23:31.618Z,19.55
2019-02-16T02:26:00.604Z,22.10
2019-02-16T02:28:28.785Z,17.90
2019-02-16T02:30:56.961Z,19.07
2019-02-16T02:33:25.169Z,23.90
2019-02-16T02:35:53.406Z,18.37
2019-02-16T02:38:21.586Z,16.32
2019-02-16T02:40:50.428Z,14.90
2019-02-16T02:43:18.645Z,14.97
2019-02-16T02:45:46.805Z,16.27
2019-02-16T02:48:15.253Z,16.10
2019-02-16T02:50:43.459Z,13.20
2019-02-16T02:53:14.395Z,13.77
2019-02-16T02:55:42.961Z,16.15
2019-02-16T02:58:11.162Z,17.32
2019-02-16T03:00:39.318Z,17.95
2019-02-16T03:03:07.509Z,21.62
2019-02-16T03:05:35.677Z,15.58
2019-02-16T03:08:03.849Z,16.27
2019-02-16T03:10:32.408Z,18.55
2019-02-16T03:13:00.617Z,19.05
2019-02-16T03:15:28.782Z,19.48
2019-02-16T03:17:56.995Z,16.42
2019-02-16T03:20:25.130Z,14.53
2019-02-16T03:23:12.461Z,16.30
2019-02-16T03:25:41.841Z,18.45
2019-02-16T03:28:40.543Z,19.42
2019-02-16T03:31:44.004Z,22.90
2019-02-16T03:34:19.446Z,28.40
2019-02-16T03:37:22.071Z,34.67
2019-02-16T03:39:50.261Z,35.53
2019-02-16T03:42:18.787Z,39.40
2019-02-16T03:44:47.292Z,39.33
2019-02-16T03:47:15.490Z,45.45
2019-02-16T03:49:43.641Z,39.95
2019-02-16T03:52:14.157Z,38.13
2019-02-16T03:54:40.302Z,36.35
2019-02-16T03:57:09.169Z,44.65
2019-02-16T03:59:38.179Z,34.10
2019-02-16T04:02:06.593Z,25.23
2019-02-16T04:04:34.751Z,25.50
2019-02-16T04:07:02.915Z,29.30
2019-02-16T04:09:31.074Z,28.40
2019-02-16T04:11:59.278Z,22.77
2019-02-16T04:14:27.691Z,26.45
2019-02-16T04:16:55.922Z,22.70
2019-02-16T04:19:24.080Z,23.40
2019-02-16T04:21:52.279Z,31.07
2019-02-16T04:24:20.999Z,29.20
2019-02-16T04:26:49.273Z,27.73
2019-02-16T04:29:17.491Z,25.27
2019-02-16T04:31:45.722Z,30.62
2019-02-16T04:34:13.863Z,26.75
2019-02-16T04:36:42.297Z,24.77
2019-02-16T04:39:10.487Z,25.75
2019-02-16T04:41:38.682Z,20.72
2019-02-16T04:44:09.413Z,26.23
2019-02-16T04:46:37.574Z,25.57
2019-02-16T04:49:05.740Z,28.70
2019-02-16T04:51:53.291Z,34.05
2019-02-16T04:54:21.744Z,34.60
2019-02-16T04:56:50.314Z,32.48
2019-02-16T04:59:18.512Z,42.45
2019-02-16T05:01:46.971Z,31.68
2019-02-16T05:04:15.175Z,25.88
2019-02-16T05:06:44.366Z,27.25
2019-02-16T05:09:12.874Z,24.02
2019-02-16T05:11:42.051Z,27.10
2019-02-16T05:14:10.217Z,27.60
2019-02-16T05:16:38.658Z,27.00
2019-02-16T05:19:06.859Z,26.73
2019-02-16T05:21:35.050Z,25.00
2019-02-16T05:24:03.222Z,26.27
2019-02-16T05:26:32.682Z,30.00
2019-02-16T05:29:00.898Z,25.88
2019-02-16T05:31:29.397Z,21.37
2019-02-16T05:33:57.565Z,29.67
2019-02-16T05:36:26.120Z,29.85
2019-02-16T05:38:56.657Z,24.40
2019-02-16T05:41:24.838Z,22.77
2019-02-16T05:43:53.028Z,28.23
2019-02-16T05:46:24.631Z,28.45
2019-02-16T05:48:51.071Z,32.28
2019-02-16T05:51:19.661Z,26.47
2019-02-16T05:53:48.133Z,34.80
2019-02-16T05:56:16.421Z,37.03
2019-02-16T05:58:46.655Z,33.23
2019-02-16T06:01:14.829Z,34.10
2019-02-16T06:03:43.057Z,35.20
2019-02-16T06:06:11.165Z,31.23
2019-02-16T06:08:40.371Z,61.55
2019-02-16T06:11:08.955Z,48.30
2019-02-16T06:13:37.457Z,36.30
2019-02-16T06:16:05.582Z,33.23
2019-02-16T06:18:33.779Z,32.28
2019-02-16T06:21:02.096Z,28.12
2019-02-16T06:23:31.165Z,33.78
2019-02-16T06:25:59.640Z,32.10
2019-02-16T06:28:27.826Z,39.25
2019-02-16T06:30:56.249Z,28.10
2019-02-16T06:33:24.502Z,25.02
2019-02-16T06:36:02.888Z,29.37
2019-02-16T06:38:31.049Z,29.25
2019-02-16T06:40:59.225Z,32.48
2019-02-16T06:43:27.406Z,30.90
2019-02-16T06:45:55.530Z,31.95
2019-02-16T06:48:23.965Z,33.42
2019-02-16T06:50:52.137Z,37.55
2019-02-16T06:53:20.281Z,31.57
2019-02-16T06:55:58.377Z,32.60
2019-02-16T06:58:26.948Z,33.48
2019-02-16T07:00:55.178Z,30.35
2019-02-16T07:03:23.326Z,30.77
2019-02-16T07:05:51.510Z,34.45
2019-02-16T07:08:19.678Z,36.47
2019-02-16T07:10:47.884Z,33.75
2019-02-16T07:13:16.557Z,35.05
2019-02-16T07:15:44.969Z,37.25
2019-02-16T07:18:21.910Z,34.55
2019-02-16T07:20:50.438Z,29.15
2019-02-16T07:23:22.619Z,30.57
2019-02-16T07:25:46.820Z,31.77
2019-02-16T07:28:14.998Z,32.30
2019-02-16T07:30:43.180Z,26.50
2019-02-16T07:33:12.633Z,29.15
2019-02-16T07:35:41.767Z,24.87
2019-02-16T07:38:09.944Z,20.85
2019-02-16T07:40:38.114Z,24.52
2019-02-16T07:43:06.356Z,20.55
2019-02-16T07:45:52.092Z,19.87
2019-02-16T07:48:38.271Z,21.37
2019-02-16T07:51:17.936Z,21.12
2019-02-16T07:53:53.056Z,20.05
2019-02-16T07:56:32.954Z,18.95
2019-02-16T07:59:32.480Z,18.48
2019-02-16T08:02:15.858Z,23.20
2019-02-16T08:04:59.893Z,62.60
2019-02-16T08:07:56.877Z,32.70
2019-02-16T08:10:43.124Z,22.17
2019-02-16T08:13:27.288Z,20.50
2019-02-16T08:16:13.254Z,24.95
2019-02-16T08:19:04.194Z,22.07
2019-02-16T08:21:39.359Z,23.17
2019-02-16T08:24:29.847Z,23.57
2019-02-16T08:27:29.850Z,19.20
2019-02-16T08:30:15.659Z,18.52
2019-02-16T08:32:58.960Z,19.62
2019-02-16T08:35:34.130Z,40.92
2019-02-16T08:38:12.400Z,18.67
2019-02-16T08:41:12.483Z,22.33
2019-02-16T08:43:56.373Z,20.32
2019-02-16T08:46:31.404Z,21.37
2019-02-16T08:49:08.853Z,19.92
2019-02-16T08:51:54.881Z,19.07
2019-02-16T08:54:29.409Z,20.50
2019-02-16T08:57:20.217Z,19.65
2019-02-16T09:00:07.760Z,20.50
2019-02-16T09:02:43.085Z,24.35
2019-02-16T09:05:19.244Z,21.42
2019-02-16T09:08:00.655Z,23.05
2019-02-16T09:13:29.621Z,21.12
2019-02-16T09:16:16.999Z,20.65
2019-02-16T09:18:55.867Z,20.95
2019-02-16T09:21:43.655Z,21.70
2019-02-16T09:24:42.857Z,21.40
2019-02-16T09:27:30.173Z,22.90
2019-02-16T09:30:06.924Z,21.35
2019-02-16T09:32:49.217Z,20.08
2019-02-16T09:35:27.072Z,21.42
2019-02-16T09:38:17.022Z,24.43
2019-02-16T09:41:16.384Z,21.52
2019-02-16T09:44:02.676Z,22.32
2019-02-16T09:46:50.391Z,21.07
2019-02-16T09:49:24.990Z,21.80
2019-02-16T09:52:08.236Z,21.07
2019-02-16T09:54:59.736Z,19.82
2019-02-16T09:58:05.148Z,22.67
2019-02-16T10:00:42.166Z,21.02
2019-02-16T10:03:43.314Z,22.58
2019-02-16T10:06:19.035Z,20.55
2019-02-16T10:09:07.195Z,24.10
2019-02-16T10:12:03.864Z,23.80
2019-02-16T10:14:49.799Z,33.98
2019-02-16T10:17:38.060Z,21.73
2019-02-16T10:20:19.419Z,30.68
2019-02-16T10:22:57.234Z,23.98
2019-02-16T10:25:47.270Z,25.77
2019-02-16T10:28:33.342Z,23.70
2019-02-16T10:31:19.242Z,19.85
2019-02-16T10:34:05.376Z,23.95
2019-02-16T10:36:42.585Z,24.17
2019-02-16T10:39:20.786Z,25.45
2019-02-16T10:42:14.246Z,21.75
2019-02-16T10:45:07.712Z,19.90
2019-02-16T10:47:57.769Z,23.22
2019-02-16T10:50:39.281Z,23.50
2019-02-16T10:53:35.312Z,22.17
2019-02-16T10:56:38.069Z,22.13
2019-02-16T10:59:18.535Z,20.90
2019-02-16T11:01:51.868Z,21.45
2019-02-16T11:04:45.114Z,21.07
2019-02-16T11:07:18.985Z,22.13
2019-02-16T11:10:06.377Z,18.45
2019-02-16T11:12:54.174Z,19.43
2019-02-16T11:15:44.120Z,21.82
2019-02-16T11:18:21.780Z,18.50
2019-02-16T11:21:00.271Z,18.55
2019-02-16T11:23:56.007Z,20.43
2019-02-16T11:26:35.257Z,19.50
2019-02-16T11:29:21.334Z,20.02
2019-02-16T11:32:03.322Z,18.75
2019-02-16T11:34:49.189Z,19.45
2019-02-16T11:37:43.221Z,21.27
2019-02-16T11:40:17.611Z,19.67
2019-02-16T11:43:03.548Z,20.62
2019-02-16T11:45:51.313Z,18.02
2019-02-16T11:48:29.145Z,20.60
2019-02-16T11:51:10.402Z,17.42
2019-02-16T11:54:16.245Z,18.07
2019-02-16T11:56:55.392Z,20.10
2019-02-16T11:59:45.581Z,16.77
2019-02-16T12:02:40.037Z,19.90
2019-02-16T12:05:31.898Z,18.87
2019-02-16T12:08:06.249Z,18.35
2019-02-16T12:10:49.341Z,17.48
2019-02-16T12:13:45.505Z,17.10
2019-02-16T12:16:32.029Z,20.03
2019-02-16T12:19:08.783Z,18.23
2019-02-16T12:21:56.204Z,20.97
2019-02-16T12:24:43.293Z,23.22
2019-02-16T12:27:18.638Z,19.62
2019-02-16T12:29:51.109Z,19.30
2019-02-16T12:32:47.310Z,19.55
2019-02-16T12:35:23.392Z,19.62
2019-02-16T12:37:57.204Z,22.87
2019-02-16T12:40:32.951Z,23.35
2019-02-16T12:43:23.247Z,18.95
2019-02-16T12:46:03.096Z,19.37
2019-02-16T12:48:43.141Z,18.10
2019-02-16T12:51:37.509Z,17.92
2019-02-16T12:54:18.335Z,21.60
2019-02-16T12:56:56.815Z,22.87
2019-02-16T12:59:44.208Z,18.10
2019-02-16T13:02:31.087Z,22.95
2019-02-16T13:05:21.295Z,19.75
2019-02-16T13:07:59.803Z,21.37
2019-02-16T13:10:46.780Z,19.55
2019-02-16T13:13:27.303Z,18.50
2019-02-16T13:16:13.790Z,19.73
2019-02-16T13:18:59.930Z,23.03
2019-02-16T13:21:41.107Z,19.82
2019-02-16T13:24:13.274Z,19.70
2019-02-16T13:26:56.212Z,19.92
2019-02-16T13:29:59.260Z,19.05
2019-02-16T13:32:34.558Z,17.77
2019-02-16T13:35:40.002Z,18.75
2019-02-16T13:38:22.982Z,20.08
2019-02-16T13:41:10.373Z,19.07
2019-02-16T13:43:46.986Z,19.85
2019-02-16T13:46:36.086Z,18.02
2019-02-16T13:49:23.643Z,18.52
2019-02-16T13:52:09.965Z,17.87
2019-02-16T13:54:46.849Z,22.85
2019-02-16T13:57:38.485Z,18.47
2019-02-16T14:00:21.926Z,19.07
2019-02-16T14:02:57.145Z,20.82
2019-02-16T14:05:38.038Z,24.23
2019-02-16T14:08:28.412Z,20.40
2019-02-16T14:11:22.138Z,22.80
2019-02-16T14:14:06.760Z,22.70
2019-02-16T14:16:41.994Z,22.62
2019-02-16T14:19:10.125Z,19.95
2019-02-16T14:21:38.593Z,25.37
2019-02-16T14:24:07.199Z,22.17
2019-02-16T14:26:35.368Z,22.22
2019-02-16T14:29:03.555Z,21.20
2019-02-16T14:31:31.715Z,22.67
2019-02-16T14:34:00.274Z,21.20
2019-02-16T14:36:29.742Z,21.05
2019-02-16T14:39:06.609Z,21.95
2019-02-16T14:41:35.125Z,20.20
2019-02-16T14:44:03.381Z,23.10
2019-02-16T14:46:31.501Z,22.13
2019-02-16T14:48:59.993Z,21.07
2019-02-16T14:51:28.153Z,21.85
2019-02-16T14:53:56.344Z,23.95
2019-02-16T14:56:25.845Z,21.27
2019-02-16T14:58:55.048Z,22.95
2019-02-16T15:01:23.429Z,22.23
2019-02-16T15:03:51.592Z,22.40
2019-02-16T15:06:20.147Z,27.55
2019-02-16T15:08:48.354Z,24.05
2019-02-16T15:11:16.516Z,23.05
2019-02-16T15:13:45.198Z,21.57
2019-02-16T15:16:13.264Z,23.30
2019-02-16T15:18:41.456Z,24.70
2019-02-16T15:21:09.636Z,25.37
2019-02-16T15:23:38.648Z,24.40
2019-02-16T15:26:05.979Z,25.80
2019-02-16T15:28:34.078Z,26.73
2019-02-16T15:31:02.304Z,26.40
2019-02-16T15:33:31.918Z,28.65
2019-02-16T15:36:00.865Z,31.00
2019-02-16T15:38:29.349Z,27.85
2019-02-16T15:40:57.571Z,31.60
2019-02-16T15:43:26.010Z,31.77
2019-02-16T15:45:54.427Z,32.55
2019-02-16T15:48:22.596Z,34.73
2019-02-16T15:50:50.867Z,33.48
2019-02-16T15:53:19.035Z,34.25
2019-02-16T15:55:47.210Z,34.98
2019-02-16T15:58:16.715Z,34.17
2019-02-16T16:00:45.298Z,35.97
2019-02-16T16:03:13.417Z,37.20
2019-02-16T16:05:41.852Z,38.07
2019-02-16T16:08:30.402Z,40.03
2019-02-16T16:11:08.375Z,36.98
2019-02-16T16:13:58.695Z,35.53
2019-02-16T16:16:57.975Z,36.63
2019-02-16T16:19:38.385Z,32.60
2019-02-16T16:22:16.258Z,35.88
2019-02-16T16:25:02.483Z,34.40
2019-02-16T16:27:49.867Z,35.63
2019-02-16T16:30:29.445Z,40.85
2019-02-16T16:33:17.225Z,41.15
2019-02-16T16:36:04.254Z,41.88
2019-02-16T16:38:51.679Z,39.15
2019-02-16T16:41:40.110Z,38.83
2019-02-16T16:44:22.057Z,36.30
2019-02-16T16:47:28.199Z,46.77
2019-02-16T16:50:18.968Z,56.15
2019-02-16T16:52:56.858Z,52.70
2019-02-16T16:55:43.105Z,47.62
2019-02-16T16:58:27.081Z,51.88
2019-02-16T17:01:17.220Z,49.93
2019-02-16T17:04:04.646Z,49.60
2019-02-16T17:06:48.468Z,137.85
2019-02-16T17:09:35.927Z,167.72
2019-02-16T17:12:34.746Z,142.00
2019-02-16T17:15:31.835Z,113.65
2019-02-16T17:18:17.900Z,68.65
2019-02-16T17:21:08.897Z,55.25
2019-02-16T17:23:53.253Z,43.67
2019-02-16T17:26:45.693Z,36.53
2019-02-16T17:29:39.064Z,37.90
2019-02-16T17:32:25.945Z,35.92
2019-02-16T17:35:02.126Z,38.42
2019-02-16T17:37:57.228Z,35.03
2019-02-16T17:40:35.312Z,38.23
2019-02-16T17:43:15.300Z,62.67
2019-02-16T17:45:55.930Z,149.93
2019-02-16T17:48:53.554Z,103.10
2019-02-16T17:51:40.025Z,59.42
2019-02-16T17:54:19.476Z,48.05
2019-02-16T17:57:01.311Z,45.27
2019-02-16T17:59:43.574Z,52.23
2019-02-16T18:02:43.268Z,46.42
2019-02-16T18:05:39.793Z,54.83
2019-02-16T18:08:32.970Z,40.40
2019-02-16T18:11:17.741Z,45.30
2019-02-16T18:14:12.183Z,48.33
2019-02-16T18:17:05.404Z,41.25
2019-02-16T18:19:41.119Z,43.05
2019-02-16T18:22:34.055Z,41.77
2019-02-16T18:25:30.242Z,51.50
2019-02-16T18:28:21.313Z,68.97
2019-02-16T18:31:15.693Z,65.97
2019-02-16T18:34:04.086Z,58.55
2019-02-16T18:36:43.497Z,54.27
2019-02-16T18:39:37.411Z,50.25
2019-02-16T18:42:13.059Z,60.05
2019-02-16T18:44:50.420Z,65.15
2019-02-16T18:47:29.842Z,57.27
2019-02-16T18:50:19.755Z,64.77
2019-02-16T18:53:07.470Z,68.52
2019-02-16T18:56:01.822Z,62.60
2019-02-16T18:58:47.734Z,67.62
2019-02-16T19:01:50.339Z,60.58
2019-02-16T19:04:29.490Z,52.17
2019-02-16T19:07:09.812Z,47.08
2019-02-16T19:10:00.329Z,51.25
2019-02-16T19:12:41.598Z,49.38
2019-02-16T19:15:34.793Z,46.88
2019-02-16T19:18:09.293Z,51.33
2019-02-16T19:20:48.034Z,42.33
2019-02-16T19:23:32.484Z,43.67
2019-02-16T19:26:36.809Z,56.15
2019-02-16T19:29:33.392Z,47.78
2019-02-16T19:32:10.309Z,42.95
2019-02-16T19:35:05.290Z,46.42
2019-02-16T19:37:44.851Z,53.38
2019-02-16T19:40:38.474Z,57.55
2019-02-16T19:43:28.413Z,64.32
2019-02-16T19:46:27.472Z,62.17
2019-02-16T19:49:05.182Z,60.33
2019-02-16T19:51:43.079Z,55.50
2019-02-16T19:54:29.159Z,53.58
2019-02-16T19:57:15.825Z,57.67
2019-02-16T20:00:02.594Z,62.73
2019-02-16T20:02:50.633Z,73.23
2019-02-16T20:05:36.554Z,66.47
2019-02-16T20:08:18.876Z,73.70
2019-02-16T20:11:01.524Z,83.70
2019-02-16T20:13:51.926Z,106.60
2019-02-16T20:16:48.650Z,92.60
2019-02-16T20:19:36.319Z,94.50
2019-02-16T20:22:19.636Z,90.97
2019-02-16T20:24:55.820Z,80.30
2019-02-16T20:27:48.479Z,74.43
2019-02-16T20:30:25.720Z,81.45
2019-02-16T20:33:26.645Z,76.82
2019-02-16T20:36:14.523Z,79.60
2019-02-16T20:39:02.341Z,66.55
2019-02-16T20:42:03.269Z,61.60
2019-02-16T20:44:56.339Z,62.67
2019-02-16T20:48:02.024Z,71.92
2019-02-16T20:50:55.469Z,62.75
2019-02-16T20:53:30.620Z,53.80
2019-02-16T20:56:04.597Z,61.30
2019-02-16T20:58:45.466Z,60.23
2019-02-16T21:04:29.963Z,61.98
2019-02-16T21:07:18.317Z,57.50
2019-02-16T21:10:05.771Z,63.28
2019-02-16T21:12:50.779Z,59.23
2019-02-16T21:15:36.672Z,59.65
2019-02-16T21:18:29.967Z,51.90
2019-02-16T21:21:23.392Z,60.92
2019-02-16T21:24:10.776Z,67.40
2019-02-16T21:27:07.084Z,66.00
2019-02-16T21:29:46.613Z,62.78
2019-02-16T21:32:34.048Z,64.97
2019-02-16T21:35:08.027Z,69.35
2019-02-16T21:37:54.162Z,69.47
2019-02-16T21:40:40.353Z,68.50
2019-02-16T21:43:28.036Z,63.42
2019-02-16T21:46:14.653Z,60.30
2019-02-16T21:49:06.089Z,59.80
2019-02-16T21:54:47.251Z,58.28
2019-02-16T21:57:29.564Z,51.83
2019-02-16T22:00:20.040Z,53.95
2019-02-16T22:02:58.412Z,64.37
2019-02-16T22:05:44.238Z,66.47
2019-02-16T22:08:40.518Z,58.90
2019-02-16T22:11:33.063Z,66.40
2019-02-16T22:14:11.168Z,63.13
2019-02-16T22:16:39.410Z,66.60
2019-02-16T22:19:08.599Z,66.20
2019-02-16T22:21:36.780Z,61.20
2019-02-16T22:24:04.957Z,65.12
2019-02-16T22:26:33.112Z,57.58
2019-02-16T22:29:01.557Z,60.12
2019-02-16T22:31:30.073Z,54.85
2019-02-16T22:33:58.244Z,64.60
2019-02-16T22:36:26.449Z,65.60
2019-02-16T22:38:54.609Z,54.98
2019-02-16T22:41:22.792Z,55.73
2019-02-16T22:43:51.011Z,57.03
2019-02-16T22:46:19.987Z,57.78
2019-02-16T22:48:48.213Z,55.28
2019-02-16T22:51:16.389Z,53.58
2019-02-16T22:53:44.961Z,54.70
2019-02-16T22:56:13.135Z,61.95
2019-02-16T22:58:41.593Z,51.50
2019-02-16T23:01:09.798Z,53.33
2019-02-16T23:03:37.987Z,52.07
2019-02-16T23:06:06.469Z,57.00
2019-02-16T23:08:34.616Z,57.03
2019-02-16T23:11:02.804Z,50.70
2019-02-16T23:13:30.977Z,52.48
2019-02-16T23:15:59.143Z,55.38
2019-02-16T23:18:27.322Z,53.73
2019-02-16T23:20:55.898Z,50.35
2019-02-16T23:23:24.069Z,44.53
2019-02-16T23:25:52.246Z,50.03
2019-02-16T23:28:20.875Z,47.25
2019-02-16T23:30:48.997Z,52.60
2019-02-16T23:33:17.174Z,53.73
2019-02-16T23:35:45.717Z,48.33
2019-02-16T23:38:13.930Z,52.17
2019-02-16T23:40:42.107Z,52.73
2019-02-16T23:43:10.644Z,52.45
2019-02-16T23:45:38.972Z,45.52
2019-02-16T23:48:07.185Z,54.42
2019-02-16T23:50:35.306Z,51.20
2019-02-16T23:53:04.522Z,46.35
2019-02-16T23:55:32.687Z,44.73
2019-02-16T23:58:00.865Z,47.17
